createdAt,value
2018-10-06T00:00:03.753Z,12.90
2018-10-06T00:02:32.391Z,13.27
2018-10-06T00:05:01.096Z,11.03
2018-10-06T00:07:29.776Z,12.43
2018-10-06T00:09:58.698Z,12.43
2018-10-06T00:12:27.699Z,10.33
2018-10-06T00:14:56.369Z,12.60
2018-10-06T00:17:25.170Z,10.00
2018-10-06T00:19:54.149Z,10.17
2018-10-06T00:22:22.879Z,10.70
2018-10-06T00:24:51.611Z,9.97
2018-10-06T00:27:20.292Z,13.87
2018-10-06T00:29:48.979Z,10.47
2018-10-06T00:32:17.623Z,9.37
2018-10-06T00:34:46.266Z,13.63
2018-10-06T00:37:14.919Z,14.10
2018-10-06T00:39:43.576Z,12.37
2018-10-06T00:42:12.242Z,11.23
2018-10-06T00:44:40.935Z,10.83
2018-10-06T00:47:09.611Z,10.90
2018-10-06T00:49:38.277Z,11.17
2018-10-06T00:52:07.010Z,10.53
2018-10-06T00:54:35.647Z,10.23
2018-10-06T00:57:04.302Z,10.83
2018-10-06T00:59:32.948Z,10.67
2018-10-06T01:02:01.680Z,8.57
2018-10-06T01:04:30.355Z,12.57
2018-10-06T01:06:59.064Z,10.10
2018-10-06T01:09:27.780Z,10.93
2018-10-06T01:11:56.427Z,10.57
2018-10-06T01:14:25.107Z,12.27
2018-10-06T01:16:53.780Z,10.20
2018-10-06T01:19:22.458Z,8.83
2018-10-06T01:21:51.167Z,9.97
2018-10-06T01:24:19.814Z,10.20
2018-10-06T01:26:48.463Z,9.30
2018-10-06T01:29:17.226Z,9.60
2018-10-06T01:31:46.111Z,10.73
2018-10-06T01:34:14.911Z,10.47
2018-10-06T01:36:43.882Z,11.77
2018-10-06T01:39:12.562Z,9.07
2018-10-06T01:41:41.218Z,10.30
2018-10-06T01:44:09.890Z,8.47
2018-10-06T01:46:38.535Z,8.37
2018-10-06T01:49:07.179Z,8.33
2018-10-06T01:51:35.872Z,8.87
2018-10-06T01:54:04.571Z,8.13
2018-10-06T01:56:33.217Z,7.33
2018-10-06T01:59:01.890Z,9.17
2018-10-06T02:01:30.539Z,8.77
2018-10-06T02:03:59.194Z,9.70
2018-10-06T02:06:27.855Z,10.17
2018-10-06T02:08:56.511Z,9.53
2018-10-06T02:11:25.190Z,10.17
2018-10-06T02:13:53.854Z,8.40
2018-10-06T02:16:22.480Z,10.63
2018-10-06T02:18:51.151Z,8.63
2018-10-06T02:21:19.788Z,7.13
2018-10-06T02:23:48.430Z,10.03
2018-10-06T02:26:17.078Z,9.50
2018-10-06T02:28:45.751Z,7.37
2018-10-06T02:31:14.418Z,8.93
2018-10-06T02:33:43.087Z,8.50
2018-10-06T02:36:11.738Z,9.73
2018-10-06T02:38:40.422Z,10.70
2018-10-06T02:41:09.158Z,8.07
2018-10-06T02:43:37.850Z,9.30
2018-10-06T02:46:06.666Z,8.63
2018-10-06T02:48:35.344Z,9.53
2018-10-06T02:51:03.987Z,6.93
2018-10-06T02:53:32.644Z,9.57
2018-10-06T02:56:01.312Z,7.97
2018-10-06T02:58:29.970Z,9.03
2018-10-06T03:00:58.641Z,7.07
2018-10-06T03:03:27.327Z,8.63
2018-10-06T03:05:55.963Z,10.77
2018-10-06T03:08:24.631Z,7.90
2018-10-06T03:10:53.275Z,10.10
2018-10-06T03:13:21.962Z,7.83
2018-10-06T03:15:50.647Z,8.07
2018-10-06T03:18:19.340Z,8.07
2018-10-06T03:20:48.000Z,10.10
2018-10-06T03:23:16.829Z,7.03
2018-10-06T03:25:45.499Z,8.03
2018-10-06T03:28:14.188Z,7.27
2018-10-06T03:30:42.837Z,7.73
2018-10-06T03:33:11.515Z,8.33
2018-10-06T03:35:40.176Z,7.17
2018-10-06T03:38:08.846Z,8.30
2018-10-06T03:40:37.475Z,7.80
2018-10-06T03:43:06.132Z,6.50
2018-10-06T03:45:34.784Z,8.30
2018-10-06T03:48:03.426Z,6.47
2018-10-06T03:50:32.132Z,8.83
2018-10-06T03:53:00.816Z,11.23
2018-10-06T03:55:29.556Z,8.87
2018-10-06T03:57:58.258Z,7.37
2018-10-06T04:00:26.928Z,8.17
2018-10-06T04:02:55.600Z,7.97
2018-10-06T04:05:24.348Z,7.57
2018-10-06T04:07:52.992Z,11.47
2018-10-06T04:10:21.671Z,10.23
2018-10-06T04:12:50.317Z,10.20
2018-10-06T04:15:18.974Z,8.50
2018-10-06T04:17:47.632Z,7.53
2018-10-06T04:20:16.283Z,11.37
2018-10-06T04:22:45.036Z,8.67
2018-10-06T04:25:13.682Z,7.23
2018-10-06T04:27:42.321Z,8.97
2018-10-06T04:30:11.300Z,8.37
2018-10-06T04:32:39.943Z,8.10
2018-10-06T04:35:08.664Z,11.00
2018-10-06T04:37:37.309Z,8.13
2018-10-06T04:40:05.983Z,10.43
2018-10-06T04:42:34.724Z,8.47
2018-10-06T04:45:03.423Z,8.30
2018-10-06T04:47:32.156Z,11.43
2018-10-06T04:50:00.893Z,8.23
2018-10-06T04:52:29.580Z,6.93
2018-10-06T04:54:58.246Z,8.33
2018-10-06T04:57:26.926Z,8.60
2018-10-06T04:59:56.014Z,10.20
2018-10-06T05:02:24.684Z,15.00
2018-10-06T05:04:53.391Z,11.63
2018-10-06T05:07:22.044Z,72.53
2018-10-06T05:09:50.700Z,26.57
2018-10-06T05:12:19.407Z,16.53
2018-10-06T05:14:48.232Z,18.60
2018-10-06T05:17:16.939Z,19.63
2018-10-06T05:19:45.636Z,16.53
2018-10-06T05:22:14.382Z,19.63
2018-10-06T05:24:43.127Z,22.67
2018-10-06T05:27:11.808Z,21.50
2018-10-06T05:29:40.538Z,18.40
2018-10-06T05:32:09.263Z,19.93
2018-10-06T05:34:38.331Z,20.27
2018-10-06T05:37:06.977Z,19.37
2018-10-06T05:39:35.671Z,16.70
2018-10-06T05:42:04.375Z,19.57
2018-10-06T05:44:33.051Z,19.27
2018-10-06T05:47:01.767Z,20.97
2018-10-06T05:49:30.418Z,27.07
2018-10-06T05:51:59.106Z,26.17
2018-10-06T05:54:27.778Z,32.80
2018-10-06T05:56:56.438Z,29.47
2018-10-06T05:59:25.112Z,36.67
2018-10-06T06:01:53.779Z,31.67
2018-10-06T06:04:22.458Z,29.73
2018-10-06T06:06:51.150Z,29.47
2018-10-06T06:09:19.946Z,28.57
2018-10-06T06:11:48.548Z,22.20
2018-10-06T06:14:17.320Z,27.07
2018-10-06T06:16:45.987Z,31.40
2018-10-06T06:19:14.667Z,28.87
2018-10-06T06:21:43.302Z,46.00
2018-10-06T06:24:12.021Z,34.47
2018-10-06T06:26:40.671Z,31.10
2018-10-06T06:29:09.376Z,38.73
2018-10-06T06:31:38.037Z,31.37
2018-10-06T06:34:06.718Z,37.40
2018-10-06T06:36:35.390Z,28.33
2018-10-06T06:39:04.660Z,42.57
2018-10-06T06:41:33.320Z,39.73
2018-10-06T06:44:02.077Z,48.27
2018-10-06T06:46:30.689Z,81.87
2018-10-06T06:48:59.352Z,109.23
2018-10-06T06:51:28.018Z,84.00
2018-10-06T06:53:56.717Z,54.37
2018-10-06T06:56:25.388Z,52.27
2018-10-06T06:58:54.108Z,45.23
2018-10-06T07:01:22.771Z,40.00
2018-10-06T07:03:51.441Z,31.73
2018-10-06T07:06:20.084Z,35.97
2018-10-06T07:08:48.728Z,30.07
2018-10-06T07:11:17.428Z,34.37
2018-10-06T07:13:46.112Z,34.27
2018-10-06T07:16:14.755Z,33.57
2018-10-06T07:18:43.567Z,31.83
2018-10-06T07:21:12.278Z,30.33
2018-10-06T07:23:40.921Z,24.40
2018-10-06T07:26:09.579Z,28.60
2018-10-06T07:28:38.326Z,21.43
2018-10-06T07:31:07.199Z,25.23
2018-10-06T07:33:35.889Z,27.50
2018-10-06T07:36:04.627Z,26.33
2018-10-06T07:38:33.409Z,24.93
2018-10-06T07:41:02.176Z,24.57
2018-10-06T07:43:30.945Z,22.57
2018-10-06T07:46:00.472Z,24.43
2018-10-06T07:48:29.148Z,25.37
2018-10-06T07:50:57.804Z,20.07
2018-10-06T07:53:26.457Z,23.83
2018-10-06T07:55:55.106Z,24.37
2018-10-06T07:58:23.762Z,20.73
2018-10-06T08:00:52.418Z,19.30
2018-10-06T08:03:21.072Z,17.23
2018-10-06T08:05:49.741Z,22.80
2018-10-06T08:08:18.388Z,17.33
2018-10-06T08:10:47.193Z,16.10
2018-10-06T08:13:15.831Z,17.67
2018-10-06T08:15:44.551Z,17.73
2018-10-06T08:18:13.197Z,14.03
2018-10-06T08:20:42.027Z,14.90
2018-10-06T08:23:10.744Z,16.50
2018-10-06T08:25:39.464Z,14.73
2018-10-06T08:28:08.200Z,18.47
2018-10-06T08:30:36.892Z,16.13
2018-10-06T08:33:05.560Z,20.40
2018-10-06T08:35:34.232Z,17.90
2018-10-06T08:38:02.883Z,16.00
2018-10-06T08:40:31.701Z,15.23
2018-10-06T08:43:00.343Z,16.57
2018-10-06T08:45:29.178Z,14.50
2018-10-06T08:47:57.952Z,16.93
2018-10-06T08:50:26.602Z,14.13
2018-10-06T08:52:55.252Z,14.80
2018-10-06T08:55:23.895Z,18.83
2018-10-06T08:57:52.587Z,14.87
2018-10-06T09:00:21.238Z,13.57
2018-10-06T09:02:49.884Z,11.27
2018-10-06T09:05:18.539Z,14.07
2018-10-06T09:07:47.200Z,17.43
2018-10-06T09:10:15.884Z,13.03
2018-10-06T09:12:44.580Z,14.97
2018-10-06T09:15:13.243Z,13.20
2018-10-06T09:17:41.932Z,12.93
2018-10-06T09:20:10.670Z,12.50
2018-10-06T09:22:39.364Z,13.27
2018-10-06T09:25:08.146Z,12.53
2018-10-06T09:27:36.766Z,11.23
2018-10-06T09:30:05.425Z,14.47
2018-10-06T09:32:34.075Z,14.67
2018-10-06T09:35:02.715Z,10.37
2018-10-06T09:37:31.450Z,10.53
2018-10-06T09:40:00.111Z,11.73
2018-10-06T09:42:28.807Z,10.30
2018-10-06T09:44:57.502Z,10.60
2018-10-06T09:47:26.188Z,12.57
2018-10-06T09:49:54.862Z,13.03
2018-10-06T09:52:23.547Z,8.23
2018-10-06T09:54:52.218Z,12.87
2018-10-06T09:57:20.914Z,11.00
2018-10-06T09:59:49.535Z,7.37
2018-10-06T10:02:23.666Z,10.73
2018-10-06T10:04:52.348Z,9.13
2018-10-06T10:07:21.565Z,9.97
2018-10-06T10:09:50.297Z,12.03
2018-10-06T10:12:18.973Z,9.37
2018-10-06T10:14:47.651Z,8.73
2018-10-06T10:17:16.380Z,8.67
2018-10-06T10:19:44.989Z,11.17
2018-10-06T10:22:13.759Z,9.07
2018-10-06T10:24:42.347Z,10.03
2018-10-06T10:27:10.997Z,8.13
2018-10-06T10:29:39.679Z,8.90
2018-10-06T10:32:08.340Z,11.03
2018-10-06T10:34:37.205Z,7.60
2018-10-06T10:37:06.062Z,7.67
2018-10-06T10:39:34.794Z,7.83
2018-10-06T10:42:03.384Z,8.17
2018-10-06T10:44:32.198Z,7.73
2018-10-06T10:47:00.789Z,7.83
2018-10-06T10:49:29.595Z,6.63
2018-10-06T10:51:58.210Z,9.77
2018-10-06T10:54:26.855Z,8.43
2018-10-06T10:56:55.492Z,8.57
2018-10-06T10:59:24.167Z,7.53
2018-10-06T11:01:52.855Z,8.00
2018-10-06T11:04:21.514Z,8.20
2018-10-06T11:06:50.154Z,9.87
2018-10-06T11:09:18.791Z,7.27
2018-10-06T11:11:47.444Z,6.63
2018-10-06T11:14:16.074Z,8.40
2018-10-06T11:16:44.863Z,6.40
2018-10-06T11:19:13.502Z,7.60
2018-10-06T11:21:42.146Z,5.70
2018-10-06T11:24:10.799Z,5.60
2018-10-06T11:26:39.458Z,9.60
2018-10-06T11:29:08.132Z,6.97
2018-10-06T11:31:36.782Z,8.30
2018-10-06T11:34:05.427Z,7.40
2018-10-06T11:36:34.058Z,6.07
2018-10-06T11:39:02.744Z,5.83
2018-10-06T11:41:31.384Z,6.63
2018-10-06T11:44:00.073Z,7.30
2018-10-06T11:46:28.711Z,7.47
2018-10-06T11:48:57.446Z,7.47
2018-10-06T11:51:26.109Z,7.60
2018-10-06T11:53:54.840Z,7.87
2018-10-06T11:56:23.503Z,7.43
2018-10-06T11:58:52.169Z,5.33
2018-10-06T12:01:20.814Z,8.50
2018-10-06T12:03:49.502Z,7.97
2018-10-06T12:06:18.186Z,5.87
2018-10-06T12:08:46.892Z,5.87
2018-10-06T12:11:15.555Z,5.97
2018-10-06T12:13:44.269Z,9.03
2018-10-06T12:16:12.991Z,6.53
2018-10-06T12:18:41.656Z,7.97
2018-10-06T12:21:10.324Z,5.97
2018-10-06T12:23:39.043Z,5.83
2018-10-06T12:26:07.690Z,7.53
2018-10-06T12:28:36.360Z,8.83
2018-10-06T12:31:04.992Z,6.10
2018-10-06T12:33:33.711Z,7.67
2018-10-06T12:36:02.363Z,6.23
2018-10-06T12:38:31.055Z,7.20
2018-10-06T12:40:59.836Z,5.67
2018-10-06T12:43:28.470Z,6.10
2018-10-06T12:45:57.194Z,6.13
2018-10-06T12:48:25.855Z,6.23
2018-10-06T12:50:54.528Z,5.80
2018-10-06T12:53:23.227Z,6.03
2018-10-06T12:55:51.933Z,7.23
2018-10-06T12:58:20.667Z,4.47
2018-10-06T13:00:49.307Z,5.17
2018-10-06T13:03:18.002Z,6.63
2018-10-06T13:05:46.647Z,7.57
2018-10-06T13:08:15.365Z,6.27
2018-10-06T13:10:44.020Z,6.20
2018-10-06T13:13:12.691Z,6.07
2018-10-06T13:15:41.340Z,6.60
2018-10-06T13:18:10.006Z,5.00
2018-10-06T13:20:38.644Z,4.10
2018-10-06T13:23:07.292Z,5.07
2018-10-06T13:25:35.955Z,5.77
2018-10-06T13:28:04.591Z,5.77
2018-10-06T13:30:33.256Z,5.80
2018-10-06T13:33:01.934Z,5.37
2018-10-06T13:35:30.589Z,6.67
2018-10-06T13:37:59.256Z,5.80
2018-10-06T13:40:28.714Z,5.37
2018-10-06T13:42:57.450Z,5.27
2018-10-06T13:45:26.146Z,5.70
2018-10-06T13:47:55.028Z,5.67
2018-10-06T13:50:23.719Z,4.83
2018-10-06T13:52:52.408Z,6.37
2018-10-06T13:55:21.034Z,4.50
2018-10-06T13:57:49.667Z,4.97
2018-10-06T14:00:18.335Z,4.77
2018-10-06T14:02:46.996Z,5.17
2018-10-06T14:05:15.661Z,5.70
2018-10-06T14:07:44.296Z,5.97
2018-10-06T14:10:12.960Z,4.90
2018-10-06T14:12:41.674Z,5.40
2018-10-06T14:15:10.346Z,5.73
2018-10-06T14:17:38.999Z,4.57
2018-10-06T14:20:07.784Z,4.63
2018-10-06T14:22:36.463Z,5.03
2018-10-06T14:25:05.237Z,3.70
2018-10-06T14:27:33.874Z,6.33
2018-10-06T14:30:02.545Z,5.67
2018-10-06T14:32:31.495Z,4.60
2018-10-06T14:35:00.141Z,4.37
2018-10-06T14:37:28.780Z,5.47
2018-10-06T14:39:57.464Z,4.63
2018-10-06T14:42:26.182Z,4.63
2018-10-06T14:44:54.870Z,5.43
2018-10-06T14:47:23.580Z,4.37
2018-10-06T14:49:52.214Z,4.77
2018-10-06T14:52:20.933Z,5.13
2018-10-06T14:54:49.717Z,4.93
2018-10-06T14:57:18.443Z,6.67
2018-10-06T14:59:47.058Z,4.60
2018-10-06T15:02:15.738Z,5.33
2018-10-06T15:04:44.391Z,5.83
2018-10-06T15:07:13.084Z,4.63
2018-10-06T15:09:41.720Z,4.13
2018-10-06T15:12:10.377Z,4.00
2018-10-06T15:14:39.034Z,4.40
2018-10-06T15:17:07.792Z,4.37
2018-10-06T15:19:36.438Z,4.43
2018-10-06T15:22:05.143Z,3.67
2018-10-06T15:24:33.819Z,3.87
2018-10-06T15:27:02.471Z,5.20
2018-10-06T15:29:31.125Z,4.37
2018-10-06T15:31:59.762Z,3.23
2018-10-06T15:34:28.421Z,4.73
2018-10-06T15:36:57.138Z,4.33
2018-10-06T15:39:25.826Z,5.10
2018-10-06T15:41:54.496Z,4.17
2018-10-06T15:44:23.200Z,5.03
2018-10-06T15:46:51.859Z,4.90
2018-10-06T15:49:20.512Z,4.63
2018-10-06T15:51:49.179Z,4.93
2018-10-06T15:54:17.863Z,4.23
2018-10-06T15:56:46.603Z,4.60
2018-10-06T15:59:15.182Z,4.03
2018-10-06T16:01:43.822Z,4.30
2018-10-06T16:04:12.494Z,5.27
2018-10-06T16:06:41.131Z,3.57
2018-10-06T16:09:09.768Z,4.10
2018-10-06T16:11:38.425Z,4.43
2018-10-06T16:14:07.068Z,3.90
2018-10-06T16:16:35.990Z,3.93
2018-10-06T16:19:04.628Z,4.10
2018-10-06T16:21:33.309Z,4.43
2018-10-06T16:24:01.913Z,3.37
2018-10-06T16:26:30.560Z,4.57
2018-10-06T16:28:59.244Z,3.63
2018-10-06T16:31:27.920Z,3.90
2018-10-06T16:33:56.725Z,3.70
2018-10-06T16:36:25.466Z,15.73
2018-10-06T16:38:54.117Z,17.43
2018-10-06T16:41:22.832Z,17.10
2018-10-06T16:43:51.458Z,18.23
2018-10-06T16:46:21.031Z,20.47
2018-10-06T16:48:49.676Z,17.33
2018-10-06T16:51:18.419Z,15.67
2018-10-06T16:53:47.082Z,18.20
2018-10-06T16:56:15.750Z,17.27
2018-10-06T16:58:44.408Z,23.20
2018-10-06T17:01:13.046Z,23.70
2018-10-06T17:03:41.689Z,27.37
2018-10-06T17:06:10.408Z,28.33
2018-10-06T17:08:39.201Z,26.13
2018-10-06T17:11:07.884Z,29.13
2018-10-06T17:13:36.561Z,29.23
2018-10-06T17:16:05.246Z,27.03
2018-10-06T17:18:33.968Z,24.80
2018-10-06T17:21:02.637Z,26.63
2018-10-06T17:23:31.335Z,28.20
2018-10-06T17:26:00.104Z,25.27
2018-10-06T17:28:35.160Z,27.73
2018-10-06T17:31:03.936Z,31.07
2018-10-06T17:33:32.622Z,30.27
2018-10-06T17:36:01.285Z,24.77
2018-10-06T17:38:29.969Z,27.57
2018-10-06T17:40:58.637Z,27.10
2018-10-06T17:43:28.467Z,32.27
2018-10-06T17:45:57.210Z,30.57
2018-10-06T17:48:25.902Z,32.33
2018-10-06T17:50:54.583Z,30.00
2018-10-06T17:53:23.289Z,31.13
2018-10-06T17:55:52.099Z,34.03
2018-10-06T17:58:20.839Z,32.37
2018-10-06T18:00:49.439Z,33.13
2018-10-06T18:03:22.955Z,32.47
2018-10-06T18:05:51.627Z,32.93
2018-10-06T18:08:20.334Z,34.00
2018-10-06T18:10:48.998Z,31.43
2018-10-06T18:13:17.870Z,31.63
2018-10-06T18:15:46.554Z,30.80
2018-10-06T18:18:15.293Z,32.23
2018-10-06T18:20:44.043Z,28.43
2018-10-06T18:23:12.660Z,27.00
2018-10-06T18:25:41.622Z,26.33
2018-10-06T18:28:10.296Z,25.63
2018-10-06T18:30:39.032Z,28.07
2018-10-06T18:33:07.926Z,29.77
2018-10-06T18:35:36.595Z,26.57
2018-10-06T18:38:05.351Z,26.07
2018-10-06T18:40:34.029Z,28.63
2018-10-06T18:43:02.731Z,29.10
2018-10-06T18:45:31.449Z,26.83
2018-10-06T18:48:00.125Z,27.17
2018-10-06T18:50:28.813Z,25.30
2018-10-06T18:52:57.496Z,23.33
2018-10-06T18:55:26.178Z,24.50
2018-10-06T18:57:54.879Z,27.30
2018-10-06T19:00:23.574Z,27.27
2018-10-06T19:02:52.265Z,22.67
2018-10-06T19:05:20.954Z,27.53
2018-10-06T19:07:49.655Z,24.77
2018-10-06T19:10:18.345Z,26.00
2018-10-06T19:12:46.986Z,24.03
2018-10-06T19:15:15.646Z,27.53
2018-10-06T19:17:44.381Z,21.67
2018-10-06T19:20:13.060Z,26.17
2018-10-06T19:22:41.742Z,25.57
2018-10-06T19:25:10.394Z,26.17
2018-10-06T19:27:39.036Z,23.53
2018-10-06T19:30:07.738Z,21.70
2018-10-06T19:35:11.711Z,25.07
2018-10-06T19:37:40.399Z,25.87
2018-10-06T19:40:09.091Z,22.77
2018-10-06T19:42:37.767Z,26.33
2018-10-06T19:45:06.459Z,21.00
2018-10-06T19:47:35.144Z,23.97
2018-10-06T19:50:03.832Z,23.90
2018-10-06T19:52:32.580Z,26.33
2018-10-06T19:55:01.313Z,23.77
2018-10-06T19:57:30.006Z,24.90
2018-10-06T19:59:58.705Z,27.77
2018-10-06T20:02:28.019Z,25.80
2018-10-06T20:04:56.705Z,23.50
2018-10-06T20:07:25.376Z,23.13
2018-10-06T20:09:59.732Z,21.30
2018-10-06T20:12:28.457Z,23.77
2018-10-06T20:14:57.065Z,23.30
2018-10-06T20:17:25.851Z,24.63
2018-10-06T20:19:54.515Z,26.13
2018-10-06T20:22:23.164Z,29.03
2018-10-06T20:24:51.830Z,30.60
2018-10-06T20:27:20.490Z,28.23
2018-10-06T20:29:49.175Z,28.37
2018-10-06T20:32:17.846Z,32.80
2018-10-06T20:34:46.511Z,29.10
2018-10-06T20:37:15.210Z,32.17
2018-10-06T20:39:43.901Z,33.23
2018-10-06T20:42:12.567Z,30.83
2018-10-06T20:44:42.900Z,30.90
2018-10-06T20:47:11.542Z,29.30
2018-10-06T20:49:40.238Z,32.63
2018-10-06T20:52:08.954Z,26.27
2018-10-06T20:54:37.762Z,29.53
2018-10-06T20:57:06.457Z,30.30
2018-10-06T20:59:35.141Z,26.47
2018-10-06T21:02:03.868Z,28.90
2018-10-06T21:04:32.538Z,26.87
2018-10-06T21:07:01.200Z,25.23
2018-10-06T21:09:29.959Z,28.30
2018-10-06T21:11:58.623Z,29.73
2018-10-06T21:14:27.289Z,30.40
2018-10-06T21:16:55.963Z,27.93
2018-10-06T21:19:24.635Z,27.73
2018-10-06T21:21:53.395Z,28.83
2018-10-06T21:24:22.080Z,35.07
2018-10-06T21:26:50.750Z,29.53
2018-10-06T21:29:19.470Z,27.30
2018-10-06T21:31:48.091Z,25.10
2018-10-06T21:34:16.825Z,28.97
2018-10-06T21:36:45.510Z,29.60
2018-10-06T21:39:14.176Z,28.80
2018-10-06T21:41:42.864Z,29.20
2018-10-06T21:44:11.552Z,29.93
2018-10-06T21:46:40.263Z,28.97
2018-10-06T21:49:08.947Z,29.23
2018-10-06T21:51:37.665Z,28.90
2018-10-06T21:54:06.335Z,24.63
2018-10-06T21:56:35.022Z,28.50
2018-10-06T21:59:03.692Z,29.83
2018-10-06T22:01:32.360Z,30.07
2018-10-06T22:04:01.032Z,31.20
2018-10-06T22:06:29.741Z,30.37
2018-10-06T22:08:58.360Z,31.10
2018-10-06T22:11:27.044Z,30.57
2018-10-06T22:13:55.745Z,26.07
2018-10-06T22:16:24.606Z,29.67
2018-10-06T22:18:53.302Z,27.07
2018-10-06T22:21:21.994Z,28.37
2018-10-06T22:23:50.674Z,30.03
2018-10-06T22:26:19.356Z,29.20
2018-10-06T22:28:48.048Z,27.93
2018-10-06T22:31:16.750Z,25.07
2018-10-06T22:33:45.412Z,27.00
2018-10-06T22:36:14.075Z,26.13
2018-10-06T22:38:42.781Z,27.53
2018-10-06T22:41:11.506Z,25.77
2018-10-06T22:43:40.202Z,29.83
2018-10-06T22:46:08.862Z,29.57
2018-10-06T22:48:37.528Z,26.43
2018-10-06T22:51:06.595Z,27.07
2018-10-06T22:53:35.295Z,27.27
2018-10-06T22:56:03.982Z,28.13
2018-10-06T22:58:32.668Z,26.97
2018-10-06T23:01:01.368Z,27.03
2018-10-06T23:03:30.053Z,26.33
2018-10-06T23:05:58.747Z,23.33
2018-10-06T23:08:27.433Z,23.43
2018-10-06T23:10:56.145Z,25.43
2018-10-06T23:13:24.811Z,22.53
2018-10-06T23:15:53.474Z,26.43
2018-10-06T23:18:22.152Z,23.03
2018-10-06T23:20:50.842Z,26.00
2018-10-06T23:23:19.530Z,25.00
2018-10-06T23:25:48.234Z,27.03
2018-10-06T23:28:16.918Z,26.30
2018-10-06T23:30:45.643Z,23.63
2018-10-06T23:33:14.293Z,24.83
2018-10-06T23:35:42.990Z,24.00
2018-10-06T23:38:11.708Z,29.57
2018-10-06T23:40:40.421Z,24.03
2018-10-06T23:43:09.126Z,24.87
2018-10-06T23:45:37.824Z,23.37
2018-10-06T23:48:06.604Z,24.97
2018-10-06T23:50:35.299Z,24.40
2018-10-06T23:53:03.978Z,23.27
2018-10-06T23:55:32.744Z,24.33
2018-10-06T23:58:01.412Z,22.67
